createdAt,value
2017-10-08T00:00:56.411Z,16.00
2017-10-08T00:01:56.386Z,16.00
2017-10-08T00:02:56.392Z,16.01
2017-10-08T00:03:56.675Z,16.02
2017-10-08T00:04:56.355Z,16.00
2017-10-08T00:05:56.348Z,15.97
2017-10-08T00:06:56.338Z,16.04
2017-10-08T00:07:56.326Z,16.05
2017-10-08T00:08:56.321Z,16.02
2017-10-08T00:09:56.384Z,16.02
2017-10-08T00:10:56.300Z,16.01
2017-10-08T00:11:56.293Z,15.97
2017-10-08T00:12:56.297Z,16.00
2017-10-08T00:13:56.278Z,16.04
2017-10-08T00:14:56.265Z,16.01
2017-10-08T00:15:56.286Z,16.04
2017-10-08T00:16:56.250Z,16.02
2017-10-08T00:17:56.596Z,16.00
2017-10-08T00:18:56.230Z,16.01
2017-10-08T00:19:56.228Z,15.97
2017-10-08T00:20:56.220Z,16.02
2017-10-08T00:21:56.209Z,16.02
2017-10-08T00:22:56.191Z,16.00
2017-10-08T00:23:56.580Z,16.01
2017-10-08T00:24:56.175Z,16.00
2017-10-08T00:25:56.161Z,15.97
2017-10-08T00:26:56.165Z,16.02
2017-10-08T00:27:56.154Z,15.97
2017-10-08T00:28:56.133Z,16.01
2017-10-08T00:29:56.439Z,15.94
2017-10-08T00:30:56.130Z,16.02
2017-10-08T00:31:56.107Z,16.01
2017-10-08T00:32:56.099Z,16.01
2017-10-08T00:33:56.099Z,16.02
2017-10-08T00:34:56.079Z,16.04
2017-10-08T00:35:56.453Z,16.00
2017-10-08T00:36:56.073Z,16.05
2017-10-08T00:37:56.060Z,16.05
2017-10-08T00:38:56.046Z,16.00
2017-10-08T00:39:56.044Z,16.01
2017-10-08T00:40:56.279Z,15.96
2017-10-08T00:41:56.460Z,16.01
2017-10-08T00:42:56.011Z,16.02
2017-10-08T00:43:55.996Z,16.05
2017-10-08T00:44:55.992Z,15.97
2017-10-08T00:45:56.002Z,16.05
2017-10-08T00:46:55.970Z,16.05
2017-10-08T00:47:56.074Z,16.00
2017-10-08T00:48:55.949Z,15.96
2017-10-08T00:49:55.941Z,16.02
2017-10-08T00:50:55.930Z,16.00
2017-10-08T00:51:55.938Z,15.97
2017-10-08T00:52:55.911Z,16.07
2017-10-08T00:53:55.937Z,16.01
2017-10-08T00:54:55.896Z,16.01
2017-10-08T00:55:55.885Z,16.02
2017-10-08T00:56:55.888Z,15.97
2017-10-08T00:57:55.878Z,16.00
2017-10-08T00:58:55.985Z,16.02
2017-10-08T00:59:55.847Z,15.96
2017-10-08T01:00:55.836Z,16.01
2017-10-08T01:01:55.844Z,16.00
2017-10-08T01:02:55.822Z,16.01
2017-10-08T01:03:55.811Z,16.01
2017-10-08T01:04:56.130Z,16.00
2017-10-08T01:05:55.790Z,15.92
2017-10-08T01:06:55.795Z,16.01
2017-10-08T01:07:55.789Z,16.00
2017-10-08T01:08:55.769Z,15.96
2017-10-08T01:09:55.754Z,16.00
2017-10-08T01:10:56.076Z,16.04
2017-10-08T01:11:55.746Z,15.97
2017-10-08T01:12:55.740Z,16.02
2017-10-08T01:13:55.717Z,16.01
2017-10-08T01:14:55.721Z,16.02
2017-10-08T01:15:55.701Z,15.96
2017-10-08T01:16:56.187Z,16.00
2017-10-08T01:17:55.694Z,15.97
2017-10-08T01:18:55.692Z,15.97
2017-10-08T01:19:55.675Z,16.00
2017-10-08T01:20:55.654Z,16.01
2017-10-08T01:21:55.655Z,15.94
2017-10-08T01:22:55.769Z,16.01
2017-10-08T01:23:55.638Z,15.97
2017-10-08T01:24:55.618Z,16.04
2017-10-08T01:25:55.605Z,16.00
2017-10-08T01:26:55.601Z,16.01
2017-10-08T01:27:55.605Z,16.00
2017-10-08T01:28:56.016Z,15.97
2017-10-08T01:29:55.583Z,16.02
2017-10-08T01:30:55.564Z,16.01
2017-10-08T01:31:55.561Z,15.97
2017-10-08T01:32:55.541Z,16.00
2017-10-08T01:33:55.535Z,16.01
2017-10-08T01:34:55.677Z,16.00
2017-10-08T01:35:55.518Z,16.00
2017-10-08T01:36:55.518Z,15.94
2017-10-08T01:37:55.496Z,16.01
2017-10-08T01:38:55.497Z,16.04
2017-10-08T01:39:55.494Z,16.00
2017-10-08T01:40:55.938Z,15.97
2017-10-08T01:41:55.465Z,16.01
2017-10-08T01:42:55.460Z,15.97
2017-10-08T01:43:55.456Z,16.02
2017-10-08T01:44:55.444Z,16.04
2017-10-08T01:45:55.422Z,15.96
2017-10-08T01:46:55.749Z,16.02
2017-10-08T01:47:55.405Z,16.01
2017-10-08T01:48:55.395Z,15.97
2017-10-08T01:49:55.405Z,16.02
2017-10-08T01:50:55.372Z,16.01
2017-10-08T01:51:55.382Z,16.04
2017-10-08T01:52:55.669Z,16.00
2017-10-08T01:53:55.358Z,16.02
2017-10-08T01:54:55.349Z,16.05
2017-10-08T01:55:55.346Z,15.97
2017-10-08T01:56:55.336Z,16.00
2017-10-08T01:57:55.308Z,15.96
2017-10-08T01:58:55.617Z,15.97
2017-10-08T01:59:55.303Z,16.04
2017-10-08T02:00:55.283Z,16.01
2017-10-08T02:01:55.285Z,16.00
2017-10-08T02:02:55.271Z,16.04
2017-10-08T02:03:55.261Z,16.01
2017-10-08T02:04:55.643Z,15.96
2017-10-08T02:05:55.238Z,16.00
2017-10-08T02:06:55.230Z,16.00
2017-10-08T02:07:55.222Z,16.02
2017-10-08T02:08:55.225Z,16.04
2017-10-08T02:09:55.198Z,16.07
2017-10-08T02:10:55.526Z,16.01
2017-10-08T02:11:55.203Z,15.97
2017-10-08T02:12:55.186Z,16.01
2017-10-08T02:13:55.172Z,15.97
2017-10-08T02:14:55.163Z,16.01
2017-10-08T02:15:55.157Z,15.97
2017-10-08T02:16:55.282Z,16.04
2017-10-08T02:17:55.127Z,16.04
2017-10-08T02:18:55.116Z,16.05
2017-10-08T02:19:55.109Z,16.01
2017-10-08T02:20:55.098Z,16.02
2017-10-08T02:21:55.092Z,16.01
2017-10-08T02:22:55.437Z,16.05
2017-10-08T02:23:55.089Z,16.05
2017-10-08T02:24:55.072Z,16.02
2017-10-08T02:25:55.047Z,16.01
2017-10-08T02:26:55.057Z,16.04
2017-10-08T02:27:55.052Z,16.04
2017-10-08T02:28:55.352Z,16.05
2017-10-08T02:29:55.017Z,16.05
2017-10-08T02:30:55.024Z,16.00
2017-10-08T02:31:54.998Z,16.04
2017-10-08T02:32:54.998Z,16.00
2017-10-08T02:33:54.989Z,16.00
2017-10-08T02:34:55.384Z,16.05
2017-10-08T02:35:54.962Z,16.04
2017-10-08T02:36:54.965Z,16.05
2017-10-08T02:37:54.958Z,15.97
2017-10-08T02:38:54.944Z,16.02
2017-10-08T02:39:54.941Z,16.05
2017-10-08T02:40:55.047Z,16.02
2017-10-08T02:41:54.916Z,16.04
2017-10-08T02:42:54.906Z,16.05
2017-10-08T02:43:54.902Z,16.05
2017-10-08T02:44:54.878Z,16.01
2017-10-08T02:45:54.882Z,16.04
2017-10-08T02:46:55.110Z,16.07
2017-10-08T02:47:54.865Z,16.07
2017-10-08T02:48:54.855Z,15.96
2017-10-08T02:49:54.842Z,16.04
2017-10-08T02:50:54.826Z,16.07
2017-10-08T02:51:54.818Z,16.07
2017-10-08T02:52:55.228Z,16.00
2017-10-08T02:53:54.802Z,16.01
2017-10-08T02:54:54.800Z,15.97
2017-10-08T02:55:54.789Z,16.01
2017-10-08T02:56:54.776Z,15.97
2017-10-08T02:57:54.777Z,16.02
2017-10-08T02:58:55.091Z,15.97
2017-10-08T02:59:54.748Z,16.01
2017-10-08T03:00:54.739Z,16.04
2017-10-08T03:01:54.736Z,16.08
2017-10-08T03:02:54.711Z,16.01
2017-10-08T03:03:54.711Z,16.05
2017-10-08T03:04:55.050Z,16.07
2017-10-08T03:05:54.680Z,16.02
2017-10-08T03:06:54.675Z,16.02
2017-10-08T03:07:54.675Z,16.07
2017-10-08T03:08:54.656Z,16.02
2017-10-08T03:09:54.661Z,16.04
2017-10-08T03:10:54.684Z,16.11
2017-10-08T03:11:54.630Z,16.04
2017-10-08T03:12:54.630Z,16.05
2017-10-08T03:13:54.620Z,16.08
2017-10-08T03:14:54.665Z,16.01
2017-10-08T03:15:54.606Z,16.00
2017-10-08T03:16:54.581Z,16.02
2017-10-08T03:17:54.572Z,16.01
2017-10-08T03:18:54.570Z,16.07
2017-10-08T03:19:54.564Z,16.07
2017-10-08T03:20:54.572Z,16.09
2017-10-08T03:21:54.538Z,16.07
2017-10-08T03:22:54.539Z,16.08
2017-10-08T03:23:54.529Z,16.07
2017-10-08T03:24:54.523Z,16.08
2017-10-08T03:25:54.502Z,16.00
2017-10-08T03:26:54.518Z,16.02
2017-10-08T03:27:54.479Z,16.08
2017-10-08T03:28:54.484Z,16.07
2017-10-08T03:29:54.822Z,16.02
2017-10-08T03:30:54.451Z,16.00
2017-10-08T03:31:54.455Z,16.04
2017-10-08T03:32:54.448Z,16.04
2017-10-08T03:33:54.425Z,15.97
2017-10-08T03:34:54.425Z,15.96
2017-10-08T03:35:54.631Z,16.02
2017-10-08T03:36:54.409Z,16.05
2017-10-08T03:37:54.399Z,16.02
2017-10-08T03:38:54.392Z,16.02
2017-10-08T03:39:54.379Z,16.07
2017-10-08T03:40:54.369Z,16.07
2017-10-08T03:41:54.756Z,16.08
2017-10-08T03:42:54.343Z,16.04
2017-10-08T03:43:54.344Z,16.05
2017-10-08T03:44:54.318Z,16.11
2017-10-08T03:45:54.328Z,16.02
2017-10-08T03:46:54.302Z,16.04
2017-10-08T03:47:54.324Z,16.02
2017-10-08T03:48:54.299Z,16.05
2017-10-08T03:49:54.715Z,16.05
2017-10-08T03:50:54.279Z,16.07
2017-10-08T03:51:54.271Z,16.08
2017-10-08T03:52:54.252Z,16.04
2017-10-08T03:53:54.242Z,16.02
2017-10-08T03:54:54.230Z,16.08
2017-10-08T03:55:54.574Z,16.02
2017-10-08T03:56:54.229Z,16.05
2017-10-08T03:57:54.201Z,16.04
2017-10-08T03:58:54.208Z,16.02
2017-10-08T03:59:54.197Z,16.04
2017-10-08T04:00:54.181Z,16.02
2017-10-08T04:01:54.611Z,16.07
2017-10-08T04:02:54.169Z,16.04
2017-10-08T04:03:54.158Z,16.07
2017-10-08T04:04:54.139Z,16.08
2017-10-08T04:05:54.145Z,16.01
2017-10-08T04:06:54.132Z,16.01
2017-10-08T04:07:54.500Z,16.08
2017-10-08T04:08:54.100Z,16.04
2017-10-08T04:09:54.093Z,16.02
2017-10-08T04:10:54.088Z,16.01
2017-10-08T04:11:54.072Z,16.05
2017-10-08T04:12:54.073Z,16.02
2017-10-08T04:13:54.235Z,16.00
2017-10-08T04:14:54.059Z,16.00
2017-10-08T04:15:54.037Z,16.07
2017-10-08T04:16:54.025Z,16.01
2017-10-08T04:17:54.032Z,16.02
2017-10-08T04:18:54.005Z,15.97
2017-10-08T04:19:54.046Z,16.05
2017-10-08T04:20:54.337Z,16.08
2017-10-08T04:21:53.984Z,16.05
2017-10-08T04:22:53.972Z,16.08
2017-10-08T04:23:53.967Z,16.07
2017-10-08T04:24:53.964Z,16.01
2017-10-08T04:25:53.955Z,16.04
2017-10-08T04:26:54.079Z,15.97
2017-10-08T04:27:53.940Z,16.08
2017-10-08T04:28:53.934Z,16.02
2017-10-08T04:29:53.917Z,16.07
2017-10-08T04:30:53.897Z,16.02
2017-10-08T04:31:53.893Z,16.08
2017-10-08T04:32:53.932Z,16.01
2017-10-08T04:33:53.876Z,16.04
2017-10-08T04:34:53.876Z,16.01
2017-10-08T04:35:53.848Z,16.08
2017-10-08T04:36:53.844Z,16.07
2017-10-08T04:37:53.842Z,16.07
2017-10-08T04:38:53.973Z,16.04
2017-10-08T04:39:53.825Z,16.12
2017-10-08T04:40:53.810Z,16.02
2017-10-08T04:41:53.792Z,16.05
2017-10-08T04:42:53.786Z,16.07
2017-10-08T04:43:53.776Z,16.04
2017-10-08T04:44:53.820Z,16.04
2017-10-08T04:45:53.772Z,16.05
2017-10-08T04:46:53.752Z,16.12
2017-10-08T04:47:53.743Z,16.02
2017-10-08T04:48:53.752Z,16.02
2017-10-08T04:49:53.735Z,16.05
2017-10-08T04:50:53.752Z,16.02
2017-10-08T04:51:53.714Z,16.08
2017-10-08T04:52:53.697Z,16.09
2017-10-08T04:53:53.690Z,16.05
2017-10-08T04:54:53.719Z,16.02
2017-10-08T04:55:53.670Z,16.05
2017-10-08T04:56:53.661Z,16.05
2017-10-08T04:57:53.659Z,16.02
2017-10-08T04:58:53.640Z,16.00
2017-10-08T04:59:54.062Z,16.02
2017-10-08T05:00:53.625Z,16.02
2017-10-08T05:01:53.624Z,16.08
2017-10-08T05:02:53.622Z,16.02
2017-10-08T05:03:53.607Z,16.07
2017-10-08T05:04:53.594Z,16.07
2017-10-08T05:05:53.610Z,16.07
2017-10-08T05:06:53.576Z,16.04
2017-10-08T05:07:53.567Z,16.09
2017-10-08T05:08:53.550Z,16.08
2017-10-08T05:09:53.560Z,16.02
2017-10-08T05:10:53.539Z,16.09
2017-10-08T05:11:53.880Z,16.04
2017-10-08T05:12:53.521Z,16.02
2017-10-08T05:13:53.515Z,16.09
2017-10-08T05:14:53.504Z,16.00
2017-10-08T05:15:53.486Z,16.01
2017-10-08T05:16:53.471Z,16.07
2017-10-08T05:17:53.792Z,16.02
2017-10-08T05:18:53.466Z,16.11
2017-10-08T05:19:53.459Z,16.02
2017-10-08T05:20:53.434Z,16.04
2017-10-08T05:21:53.439Z,16.05
2017-10-08T05:23:14.478Z,16.04
2017-10-08T05:23:53.411Z,16.08
2017-10-08T05:24:53.398Z,16.02
2017-10-08T05:25:53.387Z,16.02
2017-10-08T05:26:53.382Z,16.00
2017-10-08T05:27:53.384Z,16.04
2017-10-08T05:28:53.813Z,16.02
2017-10-08T05:29:53.368Z,16.04
2017-10-08T05:30:53.357Z,16.08
2017-10-08T05:31:53.341Z,16.08
2017-10-08T05:32:53.327Z,16.02
2017-10-08T05:33:53.327Z,16.05
2017-10-08T05:34:53.668Z,16.04
2017-10-08T05:35:53.293Z,16.05
2017-10-08T05:36:53.294Z,16.04
2017-10-08T05:37:53.291Z,16.02
2017-10-08T05:38:53.271Z,16.01
2017-10-08T05:39:53.264Z,16.02
2017-10-08T05:40:53.637Z,16.04
2017-10-08T05:41:53.253Z,16.08
2017-10-08T05:42:53.236Z,16.02
2017-10-08T05:43:53.224Z,16.00
2017-10-08T05:44:53.230Z,16.04
2017-10-08T05:45:53.220Z,16.01
2017-10-08T05:46:53.511Z,16.04
2017-10-08T05:47:53.185Z,16.02
2017-10-08T05:48:53.194Z,16.02
2017-10-08T05:49:53.166Z,16.01
2017-10-08T05:50:53.161Z,16.02
2017-10-08T05:51:53.162Z,16.05
2017-10-08T05:52:53.594Z,16.05
2017-10-08T05:53:53.132Z,16.07
2017-10-08T05:54:53.119Z,16.04
2017-10-08T05:55:53.124Z,16.09
2017-10-08T05:56:53.102Z,16.02
2017-10-08T05:57:53.095Z,16.02
2017-10-08T05:58:53.466Z,16.04
2017-10-08T05:59:53.076Z,16.04
2017-10-08T06:00:53.081Z,16.04
2017-10-08T06:01:53.073Z,16.02
2017-10-08T06:02:53.049Z,16.01
2017-10-08T06:03:53.044Z,16.07
2017-10-08T06:04:53.385Z,16.08
2017-10-08T06:05:53.036Z,16.05
2017-10-08T06:06:53.007Z,16.07
2017-10-08T06:07:53.019Z,16.05
2017-10-08T06:08:53.001Z,16.01
2017-10-08T06:09:53.001Z,16.02
2017-10-08T06:10:53.006Z,16.00
2017-10-08T06:11:52.979Z,16.05
2017-10-08T06:12:52.966Z,16.01
2017-10-08T06:13:52.948Z,16.04
2017-10-08T06:14:52.948Z,16.01
2017-10-08T06:15:53.278Z,16.04
2017-10-08T06:16:52.922Z,16.08
2017-10-08T06:17:52.923Z,16.04
2017-10-08T06:18:52.901Z,16.01
2017-10-08T06:19:52.895Z,16.02
2017-10-08T06:20:52.880Z,16.07
2017-10-08T06:21:53.216Z,16.02
2017-10-08T06:22:52.878Z,16.05
2017-10-08T06:23:52.867Z,16.00
2017-10-08T06:24:52.860Z,16.00
2017-10-08T06:25:52.846Z,16.05
2017-10-08T06:26:52.837Z,16.05
2017-10-08T06:27:52.850Z,16.01
2017-10-08T06:28:52.813Z,16.02
2017-10-08T06:29:52.811Z,16.09
2017-10-08T06:30:53.106Z,16.04
2017-10-08T06:31:52.776Z,16.08
2017-10-08T06:32:52.778Z,16.04
2017-10-08T06:33:52.762Z,16.02
2017-10-08T06:34:52.756Z,16.08
2017-10-08T06:35:52.745Z,16.02
2017-10-08T06:36:53.155Z,16.02
2017-10-08T06:37:52.727Z,16.07
2017-10-08T06:38:52.729Z,16.04
2017-10-08T06:39:52.722Z,16.02
2017-10-08T06:40:52.698Z,16.00
2017-10-08T06:41:52.685Z,16.08
2017-10-08T06:42:53.108Z,16.01
2017-10-08T06:43:52.679Z,16.04
2017-10-08T06:44:52.670Z,16.14
2017-10-08T06:45:52.652Z,16.14
2017-10-08T06:46:52.640Z,16.02
2017-10-08T06:47:52.645Z,16.08
2017-10-08T06:48:52.775Z,16.08
2017-10-08T06:49:52.627Z,16.12
2017-10-08T06:50:52.606Z,16.08
2017-10-08T06:51:52.606Z,16.11
2017-10-08T06:52:52.598Z,16.11
2017-10-08T06:53:52.591Z,16.04
2017-10-08T06:54:52.623Z,16.12
2017-10-08T06:55:52.560Z,16.11
2017-10-08T06:56:52.549Z,16.08
2017-10-08T06:57:52.555Z,16.09
2017-10-08T06:58:52.529Z,16.08
2017-10-08T06:59:52.524Z,16.04
2017-10-08T07:00:52.823Z,16.07
2017-10-08T07:01:52.506Z,16.12
2017-10-08T07:02:52.498Z,16.07
2017-10-08T07:03:52.488Z,16.09
2017-10-08T07:04:52.479Z,16.09
2017-10-08T07:05:52.479Z,16.09
2017-10-08T07:06:52.519Z,16.12
2017-10-08T07:07:52.449Z,16.12
2017-10-08T07:08:52.452Z,16.07
2017-10-08T07:09:52.427Z,16.07
2017-10-08T07:10:52.435Z,16.09
2017-10-08T07:11:52.416Z,16.14
2017-10-08T07:12:52.716Z,16.04
2017-10-08T07:13:52.400Z,16.07
2017-10-08T07:14:52.398Z,16.08
2017-10-08T07:15:52.373Z,16.12
2017-10-08T07:16:52.364Z,16.11
2017-10-08T07:17:52.356Z,16.14
2017-10-08T07:18:52.745Z,16.11
2017-10-08T07:19:52.351Z,16.15
2017-10-08T07:20:52.340Z,16.02
2017-10-08T07:21:52.326Z,16.04
2017-10-08T07:22:52.326Z,16.09
2017-10-08T07:23:52.298Z,16.07
2017-10-08T07:24:52.334Z,16.11
2017-10-08T07:25:52.580Z,16.02
2017-10-08T07:26:52.290Z,16.05
2017-10-08T07:27:52.266Z,16.11
2017-10-08T07:28:52.272Z,16.12
2017-10-08T07:29:52.252Z,16.14
2017-10-08T07:30:52.245Z,16.14
2017-10-08T07:31:52.588Z,16.09
2017-10-08T07:32:52.230Z,16.12
2017-10-08T07:33:52.292Z,16.08
2017-10-08T07:34:52.219Z,16.17
2017-10-08T07:35:52.193Z,16.12
2017-10-08T07:36:52.181Z,16.07
2017-10-08T07:37:52.577Z,16.14
2017-10-08T07:38:52.166Z,16.12
2017-10-08T07:39:52.157Z,16.12
2017-10-08T07:40:52.145Z,16.12
2017-10-08T07:41:52.134Z,16.11
2017-10-08T07:42:52.128Z,16.14
2017-10-08T07:43:52.180Z,16.11
2017-10-08T07:44:52.104Z,16.11
2017-10-08T07:45:52.101Z,16.12
2017-10-08T07:46:52.091Z,16.14
2017-10-08T07:47:52.100Z,16.14
2017-10-08T07:48:52.080Z,16.12
2017-10-08T07:49:52.127Z,16.14
2017-10-08T07:50:52.055Z,16.12
2017-10-08T07:51:52.055Z,16.09
2017-10-08T07:52:52.033Z,16.14
2017-10-08T07:53:52.040Z,16.11
2017-10-08T07:54:52.015Z,16.14
2017-10-08T07:55:52.220Z,16.11
2017-10-08T07:56:52.010Z,16.12
2017-10-08T07:57:52.004Z,16.12
2017-10-08T07:58:51.976Z,16.11
2017-10-08T07:59:51.970Z,16.15
2017-10-08T08:00:51.963Z,16.15
2017-10-08T08:01:51.976Z,16.12
2017-10-08T08:02:51.954Z,16.09
2017-10-08T08:03:51.939Z,16.15
2017-10-08T08:04:51.923Z,16.17
2017-10-08T08:05:51.923Z,16.14
2017-10-08T08:06:52.338Z,16.12
2017-10-08T08:07:51.897Z,16.15
2017-10-08T08:08:51.888Z,16.12
2017-10-08T08:09:51.892Z,16.15
2017-10-08T08:10:51.882Z,16.11
2017-10-08T08:11:51.857Z,16.14
2017-10-08T08:12:52.001Z,16.08
2017-10-08T08:13:51.851Z,16.23
2017-10-08T08:14:51.830Z,16.12
2017-10-08T08:15:51.826Z,16.20
2017-10-08T08:16:51.812Z,16.21
2017-10-08T08:17:51.815Z,16.11
2017-10-08T08:18:52.166Z,16.12
2017-10-08T08:19:51.788Z,16.17
2017-10-08T08:20:51.776Z,16.17
2017-10-08T08:21:51.779Z,16.15
2017-10-08T08:22:51.772Z,16.23
2017-10-08T08:23:51.749Z,16.14
2017-10-08T08:24:52.170Z,16.20
2017-10-08T08:25:51.741Z,16.24
2017-10-08T08:26:51.734Z,16.21
2017-10-08T08:27:51.732Z,16.14
2017-10-08T08:28:51.706Z,16.20
2017-10-08T08:29:51.697Z,16.14
2017-10-08T08:30:52.103Z,16.14
2017-10-08T08:31:51.692Z,16.15
2017-10-08T08:32:51.669Z,16.12
2017-10-08T08:33:51.664Z,16.25
2017-10-08T08:34:51.659Z,16.20
2017-10-08T08:35:51.641Z,16.14
2017-10-08T08:36:51.694Z,16.21
2017-10-08T08:37:51.634Z,16.20
2017-10-08T08:38:51.615Z,16.15
2017-10-08T08:39:51.618Z,16.23
2017-10-08T08:40:51.607Z,16.25
2017-10-08T08:41:51.596Z,16.24
2017-10-08T08:42:51.972Z,16.28
2017-10-08T08:43:51.571Z,16.24
2017-10-08T08:44:51.572Z,16.23
2017-10-08T08:45:51.561Z,16.28
2017-10-08T08:46:51.547Z,16.30
2017-10-08T08:47:51.533Z,16.28
2017-10-08T08:48:51.984Z,16.31
2017-10-08T08:49:51.526Z,16.25
2017-10-08T08:50:51.515Z,16.24
2017-10-08T08:51:51.505Z,16.27
2017-10-08T08:52:51.485Z,16.24
2017-10-08T08:53:51.473Z,16.28
2017-10-08T08:54:51.601Z,16.27
2017-10-08T08:55:51.470Z,16.24
2017-10-08T08:56:51.451Z,16.25
2017-10-08T08:57:51.437Z,16.31
2017-10-08T08:58:51.433Z,16.21
2017-10-08T08:59:51.419Z,16.21
2017-10-08T09:00:51.445Z,16.24
2017-10-08T09:01:51.402Z,16.30
2017-10-08T09:02:51.405Z,16.27
2017-10-08T09:03:51.401Z,16.27
2017-10-08T09:04:51.376Z,16.27
2017-10-08T09:05:51.681Z,16.21
2017-10-08T09:06:51.363Z,16.21
2017-10-08T09:07:51.359Z,16.24
2017-10-08T09:08:51.350Z,16.24
2017-10-08T09:09:51.339Z,16.27
2017-10-08T09:10:51.333Z,16.24
2017-10-08T09:11:51.639Z,16.24
2017-10-08T09:12:51.303Z,16.25
2017-10-08T09:13:51.301Z,16.27
2017-10-08T09:14:51.298Z,16.27
2017-10-08T09:15:51.286Z,16.17
2017-10-08T09:16:51.278Z,16.27
2017-10-08T09:17:51.646Z,16.25
2017-10-08T09:18:51.259Z,16.24
2017-10-08T09:19:51.248Z,16.14
2017-10-08T09:20:51.239Z,16.20
2017-10-08T09:21:51.223Z,16.27
2017-10-08T09:22:51.208Z,16.28
2017-10-08T09:23:51.659Z,16.21
2017-10-08T09:24:51.205Z,16.31
2017-10-08T09:25:51.185Z,16.34
2017-10-08T09:26:51.185Z,16.25
2017-10-08T09:27:51.169Z,16.25
2017-10-08T09:28:51.155Z,16.24
2017-10-08T09:29:51.471Z,16.25
2017-10-08T09:30:51.148Z,16.31
2017-10-08T09:31:51.129Z,16.33
2017-10-08T09:32:51.130Z,16.23
2017-10-08T09:33:51.120Z,16.31
2017-10-08T09:34:51.100Z,16.30
2017-10-08T09:35:51.338Z,16.30
2017-10-08T09:36:51.083Z,16.23
2017-10-08T09:37:51.082Z,16.25
2017-10-08T09:38:51.071Z,16.35
2017-10-08T09:39:51.059Z,16.34
2017-10-08T09:40:51.049Z,16.34
2017-10-08T09:41:51.501Z,16.27
2017-10-08T09:42:51.026Z,16.23
2017-10-08T09:43:51.033Z,16.28
2017-10-08T09:44:51.022Z,16.33
2017-10-08T09:45:50.998Z,16.38
2017-10-08T09:46:50.994Z,16.33
2017-10-08T09:47:51.336Z,16.21
2017-10-08T09:48:50.987Z,16.20
2017-10-08T09:49:50.973Z,16.33
2017-10-08T09:50:50.958Z,16.31
2017-10-08T09:51:50.945Z,16.34
2017-10-08T09:52:50.944Z,16.27
2017-10-08T09:53:51.376Z,16.28
2017-10-08T09:54:50.925Z,16.34
2017-10-08T09:55:50.922Z,16.31
2017-10-08T09:56:50.918Z,16.34
2017-10-08T09:57:50.891Z,16.28
2017-10-08T09:58:50.887Z,16.42
2017-10-08T09:59:51.231Z,16.33
2017-10-08T10:00:50.877Z,16.28
2017-10-08T10:01:50.875Z,16.35
2017-10-08T10:02:50.868Z,16.30
2017-10-08T10:03:50.840Z,16.38
2017-10-08T10:04:50.829Z,16.31
2017-10-08T10:05:51.202Z,16.38
2017-10-08T10:06:50.825Z,16.38
2017-10-08T10:07:50.806Z,16.35
2017-10-08T10:08:50.805Z,16.33
2017-10-08T10:09:50.796Z,16.34
2017-10-08T10:10:50.773Z,16.35
2017-10-08T10:11:51.205Z,16.31
2017-10-08T10:12:50.775Z,16.35
2017-10-08T10:13:50.761Z,16.38
2017-10-08T10:14:50.753Z,16.38
2017-10-08T10:15:50.741Z,16.31
2017-10-08T10:16:50.734Z,16.24
2017-10-08T10:17:51.141Z,16.30
2017-10-08T10:18:50.714Z,16.39
2017-10-08T10:19:50.706Z,16.33
2017-10-08T10:20:50.684Z,16.34
2017-10-08T10:21:50.676Z,16.31
2017-10-08T10:22:50.668Z,16.30
2017-10-08T10:23:51.075Z,16.34
2017-10-08T10:24:50.648Z,16.31
2017-10-08T10:25:50.642Z,16.30
2017-10-08T10:26:50.638Z,16.33
2017-10-08T10:27:50.625Z,16.35
2017-10-08T10:28:50.626Z,16.30
2017-10-08T10:29:50.978Z,16.34
2017-10-08T10:30:50.592Z,16.34
2017-10-08T10:31:50.588Z,16.41
2017-10-08T10:32:50.584Z,16.38
2017-10-08T10:33:50.585Z,16.35
2017-10-08T10:34:50.570Z,16.35
2017-10-08T10:35:50.582Z,16.35
2017-10-08T10:36:50.554Z,16.30
2017-10-08T10:37:50.531Z,16.41
2017-10-08T10:38:50.532Z,16.38
2017-10-08T10:39:50.842Z,16.34
2017-10-08T10:40:50.519Z,16.31
2017-10-08T10:41:50.508Z,16.39
2017-10-08T10:42:50.489Z,16.38
2017-10-08T10:43:50.491Z,16.38
2017-10-08T10:44:50.477Z,16.31
2017-10-08T10:45:50.792Z,16.27
2017-10-08T10:46:50.452Z,16.33
2017-10-08T10:47:50.440Z,16.45
2017-10-08T10:48:50.439Z,16.45
2017-10-08T10:49:50.420Z,16.33
2017-10-08T10:50:50.424Z,16.42
2017-10-08T10:51:50.779Z,16.41
2017-10-08T10:52:50.403Z,16.41
2017-10-08T10:53:50.386Z,16.34
2017-10-08T10:54:50.388Z,16.43
2017-10-08T10:55:50.369Z,16.43
2017-10-08T10:56:50.365Z,16.41
2017-10-08T10:57:50.377Z,16.41
2017-10-08T10:58:50.352Z,16.38
2017-10-08T10:59:50.345Z,16.42
2017-10-08T11:00:50.342Z,16.35
2017-10-08T11:01:50.316Z,16.38
2017-10-08T11:02:50.366Z,16.45
2017-10-08T11:03:50.310Z,16.41
2017-10-08T11:04:50.296Z,16.35
2017-10-08T11:05:50.284Z,16.39
2017-10-08T11:06:50.283Z,16.39
2017-10-08T11:07:50.263Z,16.42
2017-10-08T11:08:50.695Z,16.38
2017-10-08T11:09:50.256Z,16.48
2017-10-08T11:10:50.246Z,16.39
2017-10-08T11:11:50.237Z,16.45
2017-10-08T11:12:50.223Z,16.50
2017-10-08T11:13:50.225Z,16.50
2017-10-08T11:14:50.287Z,16.48
2017-10-08T11:15:50.193Z,16.50
2017-10-08T11:16:50.192Z,16.42
2017-10-08T11:17:50.175Z,16.42
2017-10-08T11:18:50.180Z,16.49
2017-10-08T11:19:50.167Z,16.49
2017-10-08T11:20:50.176Z,16.45
2017-10-08T11:21:50.136Z,16.34
2017-10-08T11:22:50.133Z,16.46
2017-10-08T11:23:50.150Z,16.43
2017-10-08T11:24:50.111Z,16.52
2017-10-08T11:25:50.115Z,16.46
2017-10-08T11:26:50.093Z,16.45
2017-10-08T11:27:50.084Z,16.46
2017-10-08T11:28:50.298Z,16.43
2017-10-08T11:29:50.076Z,16.39
2017-10-08T11:30:50.057Z,16.49
2017-10-08T11:31:50.046Z,16.46
2017-10-08T11:32:50.037Z,16.46
2017-10-08T11:33:50.031Z,16.49
2017-10-08T11:34:50.047Z,16.52
2017-10-08T11:35:50.012Z,16.46
2017-10-08T11:36:50.001Z,16.43
2017-10-08T11:37:49.991Z,16.41
2017-10-08T11:38:49.985Z,16.48
2017-10-08T11:39:50.458Z,16.46
2017-10-08T11:40:49.980Z,16.49
2017-10-08T11:41:49.960Z,16.45
2017-10-08T11:42:49.952Z,16.49
2017-10-08T11:43:49.937Z,16.52
2017-10-08T11:44:49.945Z,16.53
2017-10-08T11:45:50.292Z,16.52
2017-10-08T11:46:49.913Z,16.49
2017-10-08T11:47:49.903Z,16.49
2017-10-08T11:48:49.896Z,16.49
2017-10-08T11:49:49.884Z,16.50
2017-10-08T11:50:49.884Z,16.48
2017-10-08T11:51:50.327Z,16.53
2017-10-08T11:52:49.873Z,16.60
2017-10-08T11:53:49.848Z,16.50
2017-10-08T11:54:49.843Z,16.61
2017-10-08T11:55:49.851Z,16.52
2017-10-08T11:56:49.835Z,16.49
2017-10-08T11:57:50.328Z,16.53
2017-10-08T11:58:49.817Z,16.50
2017-10-08T11:59:49.800Z,16.56
2017-10-08T12:00:49.798Z,16.52
2017-10-08T12:01:49.780Z,16.56
2017-10-08T12:02:49.770Z,16.48
2017-10-08T12:03:49.804Z,16.50
2017-10-08T12:04:50.067Z,16.53
2017-10-08T12:05:49.747Z,16.45
2017-10-08T12:06:49.752Z,16.53
2017-10-08T12:07:49.727Z,16.52
2017-10-08T12:08:49.728Z,16.52
2017-10-08T12:09:49.722Z,16.53
2017-10-08T12:10:49.835Z,16.50
2017-10-08T12:11:49.706Z,16.50
2017-10-08T12:12:49.696Z,16.48
2017-10-08T12:13:49.677Z,16.49
2017-10-08T12:14:49.662Z,16.56
2017-10-08T12:15:49.659Z,16.56
2017-10-08T12:16:49.952Z,16.53
2017-10-08T12:17:49.641Z,16.52
2017-10-08T12:18:49.638Z,16.53
2017-10-08T12:19:49.632Z,16.50
2017-10-08T12:20:49.626Z,16.61
2017-10-08T12:21:49.617Z,16.42
2017-10-08T12:22:50.009Z,16.50
2017-10-08T12:23:49.595Z,16.39
2017-10-08T12:24:49.594Z,16.53
2017-10-08T12:25:49.564Z,16.50
2017-10-08T12:26:49.560Z,16.52
2017-10-08T12:27:49.560Z,16.46
2017-10-08T12:28:49.932Z,16.53
2017-10-08T12:29:49.529Z,16.50
2017-10-08T12:30:49.533Z,16.50
2017-10-08T12:31:49.515Z,16.53
2017-10-08T12:32:49.505Z,16.45
2017-10-08T12:33:49.494Z,16.53
2017-10-08T12:34:49.895Z,16.50
2017-10-08T12:35:49.473Z,16.50
2017-10-08T12:36:49.480Z,16.53
2017-10-08T12:37:49.459Z,16.52
2017-10-08T12:38:49.460Z,16.52
2017-10-08T12:39:49.452Z,16.50
2017-10-08T12:40:49.464Z,16.52
2017-10-08T12:41:49.452Z,16.48
2017-10-08T12:42:49.414Z,16.50
2017-10-08T12:43:49.414Z,16.46
2017-10-08T12:44:49.416Z,16.45
2017-10-08T12:45:49.394Z,16.45
2017-10-08T12:46:49.808Z,16.48
2017-10-08T12:47:49.371Z,16.45
2017-10-08T12:48:49.374Z,16.45
2017-10-08T12:49:49.354Z,16.49
2017-10-08T12:50:49.354Z,16.48
2017-10-08T12:51:49.346Z,16.48
2017-10-08T12:52:49.475Z,16.45